createdAt,value
2022-09-12T00:00:22.766Z,0.00
2022-09-12T00:01:22.809Z,0.00
2022-09-12T00:02:22.746Z,0.00
2022-09-12T00:03:22.695Z,0.00
2022-09-12T00:04:22.732Z,0.00
2022-09-12T00:05:22.632Z,0.00
2022-09-12T00:06:23.371Z,0.00
2022-09-12T00:07:22.581Z,0.00
2022-09-12T00:08:22.547Z,0.00
2022-09-12T00:09:22.526Z,0.00
2022-09-12T00:10:22.555Z,0.00
2022-09-12T00:11:22.412Z,0.00
2022-09-12T00:12:22.400Z,0.00
2022-09-12T00:13:22.382Z,0.00
2022-09-12T00:14:22.359Z,0.00
2022-09-12T00:15:22.351Z,0.00
2022-09-12T00:16:22.427Z,0.00
2022-09-12T00:17:22.243Z,0.00
2022-09-12T00:18:22.224Z,0.00
2022-09-12T00:19:22.171Z,0.00
2022-09-12T00:20:22.150Z,0.00
2022-09-12T00:21:22.113Z,0.00
2022-09-12T00:22:22.187Z,0.00
2022-09-12T00:23:22.036Z,0.00
2022-09-12T00:24:22.074Z,0.00
2022-09-12T00:25:21.977Z,0.00
2022-09-12T00:26:22.017Z,0.00
2022-09-12T00:27:21.908Z,0.00
2022-09-12T00:28:21.873Z,0.00
2022-09-12T00:29:21.843Z,0.00
2022-09-12T00:30:21.814Z,0.00
2022-09-12T00:31:21.937Z,0.00
2022-09-12T00:32:21.761Z,0.00
2022-09-12T00:33:21.796Z,0.00
2022-09-12T00:34:21.702Z,0.00
2022-09-12T00:35:21.678Z,0.00
2022-09-12T00:36:21.684Z,0.00
2022-09-12T00:37:21.627Z,0.00
2022-09-12T00:38:21.573Z,0.00
2022-09-12T00:39:21.538Z,0.00
2022-09-12T00:40:21.498Z,0.00
2022-09-12T00:41:23.449Z,0.00
2022-09-12T00:42:21.443Z,0.00
2022-09-12T00:43:21.462Z,0.00
2022-09-12T00:44:21.433Z,0.00
2022-09-12T00:45:21.357Z,0.00
2022-09-12T00:46:21.310Z,0.00
2022-09-12T00:47:21.378Z,0.00
2022-09-12T00:48:21.257Z,0.00
2022-09-12T00:49:21.221Z,0.00
2022-09-12T00:50:21.198Z,0.00
2022-09-12T00:51:21.165Z,0.00
2022-09-12T00:52:21.128Z,0.00
2022-09-12T00:53:21.156Z,0.00
2022-09-12T00:54:21.074Z,0.00
2022-09-12T00:55:21.012Z,0.00
2022-09-12T00:56:20.988Z,0.00
2022-09-12T00:57:20.967Z,0.00
2022-09-12T00:58:20.938Z,0.00
2022-09-12T00:59:20.981Z,0.00
2022-09-12T01:00:20.868Z,0.00
2022-09-12T01:01:20.877Z,0.00
2022-09-12T01:02:20.820Z,0.00
2022-09-12T01:03:20.756Z,0.00
2022-09-12T01:04:20.803Z,0.00
2022-09-12T01:05:20.763Z,0.00
2022-09-12T01:06:20.695Z,0.00
2022-09-12T01:07:20.650Z,0.00
2022-09-12T01:08:20.601Z,0.00
2022-09-12T01:09:20.588Z,0.00
2022-09-12T01:10:20.877Z,0.00
2022-09-12T01:11:20.510Z,0.00
2022-09-12T01:12:20.486Z,0.00
2022-09-12T01:13:20.443Z,0.00
2022-09-12T01:14:20.431Z,0.00
2022-09-12T01:15:20.383Z,0.00
2022-09-12T01:16:20.452Z,0.00
2022-09-12T01:17:20.348Z,0.00
2022-09-12T01:18:20.306Z,0.00
2022-09-12T01:19:20.246Z,0.00
2022-09-12T01:20:20.217Z,0.00
2022-09-12T01:21:20.259Z,0.00
2022-09-12T01:22:20.162Z,0.00
2022-09-12T01:23:20.118Z,0.00
2022-09-12T01:24:20.088Z,0.00
2022-09-12T01:25:20.086Z,0.00
2022-09-12T01:26:20.038Z,0.00
2022-09-12T01:27:20.048Z,0.00
2022-09-12T01:28:19.957Z,0.00
2022-09-12T01:29:19.924Z,0.00
2022-09-12T01:30:19.918Z,0.00
2022-09-12T01:31:19.862Z,0.00
2022-09-12T01:32:19.945Z,0.00
2022-09-12T01:33:19.848Z,0.00
2022-09-12T01:34:19.828Z,0.00
2022-09-12T01:35:19.719Z,0.00
2022-09-12T01:36:19.721Z,0.00
2022-09-12T01:37:19.665Z,0.00
2022-09-12T01:38:19.713Z,0.00
2022-09-12T01:39:19.610Z,0.00
2022-09-12T01:40:19.565Z,0.00
2022-09-12T01:41:20.416Z,0.00
2022-09-12T01:42:19.566Z,0.00
2022-09-12T01:43:19.457Z,0.00
2022-09-12T01:44:20.043Z,0.00
2022-09-12T01:45:20.283Z,0.00
2022-09-12T01:46:19.368Z,0.00
2022-09-12T01:47:19.339Z,0.00
2022-09-12T01:48:19.333Z,0.00
2022-09-12T01:49:19.628Z,0.00
2022-09-12T01:50:19.329Z,0.00
2022-09-12T01:51:19.201Z,0.00
2022-09-12T01:52:19.238Z,0.00
2022-09-12T01:53:19.189Z,0.00
2022-09-12T01:54:19.132Z,0.00
2022-09-12T01:55:19.135Z,0.00
2022-09-12T01:56:19.059Z,0.00
2022-09-12T01:57:19.047Z,0.00
2022-09-12T01:58:18.982Z,0.00
2022-09-12T01:59:19.016Z,0.00
2022-09-12T02:00:19.089Z,0.00
2022-09-12T02:01:18.929Z,0.00
2022-09-12T02:02:18.890Z,0.00
2022-09-12T02:03:18.814Z,0.00
2022-09-12T02:04:18.847Z,0.00
2022-09-12T02:05:19.123Z,0.00
2022-09-12T02:06:18.729Z,0.00
2022-09-12T02:07:18.710Z,0.00
2022-09-12T02:08:18.677Z,0.00
2022-09-12T02:09:18.632Z,0.00
2022-09-12T02:10:18.587Z,0.00
2022-09-12T02:11:18.640Z,0.00
2022-09-12T02:12:18.536Z,0.00
2022-09-12T02:13:18.495Z,0.00
2022-09-12T02:14:18.502Z,0.00
2022-09-12T02:15:18.419Z,0.00
2022-09-12T02:16:18.510Z,0.00
2022-09-12T02:17:18.354Z,0.00
2022-09-12T02:18:18.382Z,0.00
2022-09-12T02:19:18.322Z,0.00
2022-09-12T02:20:44.046Z,0.00
2022-09-12T02:21:18.248Z,0.00
2022-09-12T02:22:18.478Z,0.00
2022-09-12T02:23:18.163Z,0.00
2022-09-12T02:24:18.137Z,0.00
2022-09-12T02:25:18.104Z,0.00
2022-09-12T02:26:18.087Z,0.00
2022-09-12T02:27:18.793Z,0.00
2022-09-12T02:28:18.119Z,0.00
2022-09-12T02:29:17.992Z,0.00
2022-09-12T02:30:17.938Z,0.00
2022-09-12T02:31:17.915Z,0.00
2022-09-12T02:32:17.961Z,0.00
2022-09-12T02:33:17.869Z,0.00
2022-09-12T02:34:17.917Z,0.00
2022-09-12T02:35:17.797Z,0.00
2022-09-12T02:36:17.763Z,0.00
2022-09-12T02:37:17.787Z,0.00
2022-09-12T02:38:17.736Z,0.00
2022-09-12T02:39:17.657Z,0.00
2022-09-12T02:40:17.722Z,0.00
2022-09-12T02:41:23.295Z,0.00
2022-09-12T02:42:17.619Z,0.00
2022-09-12T02:43:17.540Z,0.00
2022-09-12T02:44:17.483Z,0.00
2022-09-12T02:45:17.472Z,0.00
2022-09-12T02:46:17.440Z,0.00
2022-09-12T02:47:17.468Z,0.00
2022-09-12T02:48:17.363Z,0.00
2022-09-12T02:49:17.336Z,0.00
2022-09-12T02:50:17.273Z,0.00
2022-09-12T02:51:20.385Z,0.00
2022-09-12T02:52:17.224Z,0.00
2022-09-12T02:53:17.264Z,0.00
2022-09-12T02:54:17.152Z,0.00
2022-09-12T02:55:17.120Z,0.00
2022-09-12T02:56:17.120Z,0.00
2022-09-12T02:57:21.867Z,0.00
2022-09-12T02:58:17.077Z,0.00
2022-09-12T02:59:17.049Z,0.00
2022-09-12T03:00:17.027Z,0.00
2022-09-12T03:01:21.848Z,0.00
2022-09-12T03:02:16.916Z,0.00
2022-09-12T03:03:16.857Z,0.00
2022-09-12T03:04:16.875Z,0.00
2022-09-12T03:05:16.788Z,0.00
2022-09-12T03:06:16.760Z,0.00
2022-09-12T03:07:16.855Z,0.00
2022-09-12T03:08:17.306Z,0.00
2022-09-12T03:09:16.721Z,0.00
2022-09-12T03:10:16.653Z,0.00
2022-09-12T03:11:16.589Z,0.00
2022-09-12T03:12:16.559Z,0.00
2022-09-12T03:13:16.546Z,0.00
2022-09-12T03:14:16.582Z,0.00
2022-09-12T03:15:16.466Z,0.00
2022-09-12T03:16:16.499Z,0.00
2022-09-12T03:17:16.415Z,0.00
2022-09-12T03:18:16.383Z,0.00
2022-09-12T03:19:16.397Z,0.00
2022-09-12T03:20:16.349Z,0.00
2022-09-12T03:21:16.263Z,0.00
2022-09-12T03:22:16.221Z,0.00
2022-09-12T03:23:16.222Z,0.00
2022-09-12T03:24:16.158Z,0.00
2022-09-12T03:25:16.180Z,0.00
2022-09-12T03:26:16.143Z,0.00
2022-09-12T03:27:16.067Z,0.00
2022-09-12T03:28:16.039Z,0.00
2022-09-12T03:29:16.001Z,0.00
2022-09-12T03:30:16.054Z,0.00
2022-09-12T03:31:15.925Z,0.00
2022-09-12T03:32:15.891Z,0.00
2022-09-12T03:33:15.859Z,0.00
2022-09-12T03:34:15.820Z,0.00
2022-09-12T03:35:17.938Z,0.00
2022-09-12T03:36:15.865Z,0.00
2022-09-12T03:37:15.800Z,0.00
2022-09-12T03:38:15.699Z,0.00
2022-09-12T03:39:15.657Z,0.00
2022-09-12T03:40:15.671Z,0.00
2022-09-12T03:41:15.657Z,0.00
2022-09-12T03:42:15.618Z,0.00
2022-09-12T03:43:15.521Z,0.00
2022-09-12T03:44:15.486Z,0.00
2022-09-12T03:45:15.465Z,0.00
2022-09-12T03:46:15.435Z,0.00
2022-09-12T03:47:15.449Z,0.00
2022-09-12T03:48:15.419Z,0.00
2022-09-12T03:49:15.336Z,0.00
2022-09-12T03:50:15.303Z,0.00
2022-09-12T03:51:15.260Z,0.00
2022-09-12T03:52:15.230Z,0.00
2022-09-12T03:53:17.258Z,0.00
2022-09-12T03:54:15.222Z,0.00
2022-09-12T03:55:15.144Z,0.00
2022-09-12T03:56:15.096Z,0.00
2022-09-12T03:57:15.059Z,0.00
2022-09-12T03:58:15.032Z,0.00
2022-09-12T03:59:15.064Z,0.00
2022-09-12T04:00:19.608Z,0.00
2022-09-12T04:01:15.009Z,0.00
2022-09-12T04:02:14.932Z,0.00
2022-09-12T04:03:14.863Z,4.00
2022-09-12T04:04:14.838Z,4.00
2022-09-12T04:05:14.877Z,0.00
2022-09-12T04:06:14.762Z,4.00
2022-09-12T04:07:14.733Z,4.00
2022-09-12T04:08:14.699Z,4.00
2022-09-12T04:09:14.667Z,4.00
2022-09-12T04:10:16.211Z,4.00
2022-09-12T04:11:14.679Z,8.00
2022-09-12T04:12:14.567Z,8.00
2022-09-12T04:13:14.535Z,12.00
2022-09-12T04:14:14.498Z,16.00
2022-09-12T04:15:14.473Z,16.00
2022-09-12T04:16:14.482Z,20.00
2022-09-12T04:17:14.454Z,20.00
2022-09-12T04:18:14.370Z,24.00
2022-09-12T04:19:14.330Z,32.00
2022-09-12T04:20:14.337Z,40.00
2022-09-12T04:21:14.269Z,44.00
2022-09-12T04:22:14.304Z,48.00
2022-09-12T04:23:14.276Z,56.00
2022-09-12T04:24:14.338Z,68.00
2022-09-12T04:25:14.134Z,72.00
2022-09-12T04:26:14.123Z,84.00
2022-09-12T04:27:14.072Z,96.00
2022-09-12T04:28:14.089Z,108.00
2022-09-12T04:29:14.002Z,124.00
2022-09-12T04:30:13.975Z,140.00
2022-09-12T04:31:13.961Z,156.00
2022-09-12T04:32:13.915Z,172.00
2022-09-12T04:33:14.073Z,188.00
2022-09-12T04:34:13.850Z,212.00
2022-09-12T04:35:13.822Z,232.00
2022-09-12T04:36:13.780Z,252.00
2022-09-12T04:37:13.736Z,276.00
2022-09-12T04:38:13.707Z,300.00
2022-09-12T04:39:13.779Z,328.00
2022-09-12T04:40:13.680Z,352.00
2022-09-12T04:41:13.612Z,380.00
2022-09-12T04:42:13.576Z,408.00
2022-09-12T04:43:14.647Z,444.00
2022-09-12T04:44:13.510Z,468.00
2022-09-12T04:45:13.529Z,500.00
2022-09-12T04:46:13.456Z,536.00
2022-09-12T04:47:13.410Z,572.00
2022-09-12T04:48:13.446Z,596.00
2022-09-12T04:49:13.340Z,636.00
2022-09-12T04:50:13.307Z,668.00
2022-09-12T04:51:13.275Z,712.00
2022-09-12T04:52:13.236Z,748.00
2022-09-12T04:53:13.204Z,788.00
2022-09-12T04:54:13.253Z,828.00
2022-09-12T04:55:13.139Z,868.00
2022-09-12T04:56:13.108Z,916.00
2022-09-12T04:57:13.070Z,964.00
2022-09-12T04:58:13.035Z,1004.00
2022-09-12T04:59:13.015Z,1032.00
2022-09-12T05:00:13.220Z,1064.00
2022-09-12T05:01:13.001Z,1112.00
2022-09-12T05:02:12.934Z,1140.00
2022-09-12T05:03:12.891Z,1176.00
2022-09-12T05:04:12.842Z,1216.00
2022-09-12T05:05:12.821Z,1256.00
2022-09-12T05:06:12.884Z,1304.00
2022-09-12T05:07:12.742Z,1344.00
2022-09-12T05:08:12.710Z,1380.00
2022-09-12T05:09:12.694Z,1420.00
2022-09-12T05:10:12.647Z,1444.00
2022-09-12T05:11:12.608Z,1480.00
2022-09-12T05:12:12.621Z,1524.00
2022-09-12T05:13:12.540Z,1572.00
2022-09-12T05:14:12.515Z,1588.00
2022-09-12T05:15:12.534Z,1616.00
2022-09-12T05:16:12.489Z,1644.00
2022-09-12T05:17:12.500Z,1684.00
2022-09-12T05:18:12.377Z,1708.00
2022-09-12T05:19:12.346Z,1748.00
2022-09-12T05:20:12.311Z,1784.00
2022-09-12T05:21:12.273Z,1824.00
2022-09-12T05:22:12.244Z,1860.00
2022-09-12T05:23:12.283Z,1896.00
2022-09-12T05:24:12.186Z,1928.00
2022-09-12T05:25:12.142Z,2020.00
2022-09-12T05:26:12.113Z,2084.00
2022-09-12T05:27:12.079Z,2108.00
2022-09-12T05:28:12.201Z,2116.00
2022-09-12T05:29:12.009Z,2128.00
2022-09-12T05:30:11.974Z,2144.00
2022-09-12T05:31:11.988Z,2164.00
2022-09-12T05:32:11.908Z,2204.00
2022-09-12T05:33:11.876Z,2236.00
2022-09-12T05:34:12.278Z,2296.00
2022-09-12T05:35:11.827Z,2368.00
2022-09-12T05:36:11.770Z,2424.00
2022-09-12T05:37:11.747Z,2420.00
2022-09-12T05:38:11.711Z,2440.00
2022-09-12T05:39:11.726Z,2468.00
2022-09-12T05:40:12.053Z,2536.00
2022-09-12T05:41:16.937Z,2556.00
2022-09-12T05:42:11.590Z,2572.00
2022-09-12T05:43:11.547Z,2628.00
2022-09-12T05:44:11.512Z,2644.00
2022-09-12T05:45:11.486Z,2816.00
2022-09-12T05:46:11.558Z,2884.00
2022-09-12T05:47:11.415Z,2884.00
2022-09-12T05:48:11.397Z,2924.00
2022-09-12T05:49:11.418Z,2744.00
2022-09-12T05:50:11.309Z,2768.00
2022-09-12T05:51:11.287Z,2872.00
2022-09-12T05:52:11.294Z,2884.00
2022-09-12T05:53:11.288Z,3164.00
2022-09-12T05:54:11.261Z,3476.00
2022-09-12T05:55:11.152Z,3372.00
2022-09-12T05:56:11.187Z,3400.00
2022-09-12T05:57:11.084Z,3448.00
2022-09-12T05:58:11.056Z,3500.00
2022-09-12T05:59:11.080Z,3608.00
2022-09-12T06:00:10.990Z,3752.00
2022-09-12T06:01:10.994Z,3840.00
2022-09-12T06:02:10.983Z,3612.00
2022-09-12T06:03:10.891Z,3524.00
2022-09-12T06:04:12.562Z,3552.00
2022-09-12T06:05:10.827Z,3392.00
2022-09-12T06:06:10.793Z,3376.00
2022-09-12T06:07:10.760Z,3448.00
2022-09-12T06:08:10.736Z,3392.00
2022-09-12T06:09:10.699Z,3336.00
2022-09-12T06:10:10.717Z,3240.00
2022-09-12T06:11:10.635Z,3184.00
2022-09-12T06:12:10.606Z,3088.00
2022-09-12T06:13:10.615Z,3008.00
2022-09-12T06:14:10.537Z,2960.00
2022-09-12T06:15:12.342Z,2928.00
2022-09-12T06:16:11.357Z,2916.00
2022-09-12T06:17:10.442Z,2920.00
2022-09-12T06:18:10.411Z,2900.00
2022-09-12T06:19:10.376Z,2896.00
2022-09-12T06:20:10.337Z,2896.00
2022-09-12T06:21:10.436Z,2896.00
2022-09-12T06:22:10.844Z,2908.00
2022-09-12T06:23:10.244Z,2912.00
2022-09-12T06:24:10.212Z,2916.00
2022-09-12T06:25:10.183Z,2924.00
2022-09-12T06:26:10.148Z,2928.00
2022-09-12T06:27:10.173Z,2932.00
2022-09-12T06:28:10.081Z,2936.00
2022-09-12T06:29:10.058Z,2944.00
2022-09-12T06:30:10.020Z,2948.00
2022-09-12T06:31:10.010Z,2956.00
2022-09-12T06:32:10.022Z,2956.00
2022-09-12T06:33:09.972Z,2968.00
2022-09-12T06:34:09.913Z,2980.00
2022-09-12T06:35:09.884Z,2992.00
2022-09-12T06:36:12.344Z,3000.00
2022-09-12T06:37:09.840Z,3004.00
2022-09-12T06:38:09.858Z,3016.00
2022-09-12T06:39:09.734Z,3016.00
2022-09-12T06:40:09.775Z,3028.00
2022-09-12T06:41:09.681Z,3028.00
2022-09-12T06:42:09.644Z,3032.00
2022-09-12T06:43:09.623Z,3044.00
2022-09-12T06:44:09.652Z,3044.00
2022-09-12T06:45:09.550Z,3040.00
2022-09-12T06:46:09.560Z,3040.00
2022-09-12T06:47:09.479Z,3036.00
2022-09-12T06:48:09.447Z,3032.00
2022-09-12T06:49:09.415Z,3028.00
2022-09-12T06:50:09.445Z,3032.00
2022-09-12T06:51:09.350Z,3036.00
2022-09-12T06:52:09.317Z,3040.00
2022-09-12T06:53:09.285Z,3040.00
2022-09-12T06:54:09.263Z,3040.00
2022-09-12T06:55:09.223Z,3040.00
2022-09-12T06:56:09.244Z,3044.00
2022-09-12T06:57:09.219Z,3056.00
2022-09-12T06:58:09.150Z,3060.00
2022-09-12T06:59:09.100Z,3068.00
2022-09-12T07:00:09.066Z,3068.00
2022-09-12T07:01:09.088Z,3072.00
2022-09-12T07:02:10.115Z,3080.00
2022-09-12T07:03:08.974Z,3092.00
2022-09-12T07:04:08.939Z,3092.00
2022-09-12T07:05:08.905Z,3100.00
2022-09-12T07:06:08.891Z,3104.00
2022-09-12T07:07:08.853Z,3100.00
2022-09-12T07:08:08.911Z,3100.00
2022-09-12T07:09:08.784Z,3108.00
2022-09-12T07:10:08.787Z,3112.00
2022-09-12T07:11:08.736Z,3116.00
2022-09-12T07:12:08.688Z,3128.00
2022-09-12T07:13:08.658Z,3128.00
2022-09-12T07:14:08.762Z,3144.00
2022-09-12T07:15:08.601Z,3164.00
2022-09-12T07:16:08.566Z,3164.00
2022-09-12T07:17:08.595Z,3148.00
2022-09-12T07:18:08.683Z,3148.00
2022-09-12T07:19:08.475Z,3152.00
2022-09-12T07:20:08.436Z,3160.00
2022-09-12T07:21:08.407Z,3172.00
2022-09-12T07:22:08.381Z,3176.00
2022-09-12T07:23:08.350Z,3180.00
2022-09-12T07:24:08.379Z,3192.00
2022-09-12T07:25:08.281Z,3204.00
2022-09-12T07:26:08.251Z,3204.00
2022-09-12T07:27:08.224Z,3196.00
2022-09-12T07:28:08.194Z,3188.00
2022-09-12T07:29:34.887Z,3192.00
2022-09-12T07:30:08.140Z,3200.00
2022-09-12T07:31:08.153Z,3220.00
2022-09-12T07:32:08.065Z,3228.00
2022-09-12T07:33:08.028Z,3244.00
2022-09-12T07:34:08.006Z,3248.00
2022-09-12T07:35:08.608Z,3284.00
2022-09-12T07:36:07.940Z,3308.00
2022-09-12T07:37:07.912Z,3332.00
2022-09-12T07:38:07.888Z,3360.00
2022-09-12T07:39:07.874Z,3380.00
2022-09-12T07:40:07.917Z,3396.00
2022-09-12T07:41:07.920Z,3412.00
2022-09-12T07:42:07.763Z,3424.00
2022-09-12T07:43:07.736Z,3416.00
2022-09-12T07:44:07.694Z,3416.00
2022-09-12T07:45:07.663Z,3416.00
2022-09-12T07:46:07.691Z,3416.00
2022-09-12T07:47:07.715Z,3412.00
2022-09-12T07:48:07.645Z,3420.00
2022-09-12T07:49:08.398Z,3424.00
2022-09-12T07:50:07.516Z,3384.00
2022-09-12T07:51:07.489Z,3432.00
2022-09-12T07:52:07.456Z,3448.00
2022-09-12T07:53:07.418Z,3424.00
2022-09-12T07:54:07.594Z,3444.00
2022-09-12T07:55:07.357Z,3476.00
2022-09-12T07:56:07.330Z,3376.00
2022-09-12T07:57:07.295Z,3364.00
2022-09-12T07:58:07.270Z,3348.00
2022-09-12T07:59:07.234Z,3332.00
2022-09-12T08:01:39.325Z,3312.00
2022-09-12T08:02:39.247Z,3308.00
2022-09-12T08:03:39.188Z,3304.00
2022-09-12T08:04:39.159Z,3304.00
2022-09-12T08:05:39.131Z,3312.00
2022-09-12T08:06:39.286Z,3308.00
2022-09-12T08:07:39.067Z,3304.00
2022-09-12T08:08:39.037Z,3296.00
2022-09-12T08:09:39.007Z,3288.00
2022-09-12T08:10:38.970Z,3272.00
2022-09-12T08:11:38.952Z,3268.00
2022-09-12T08:12:39.002Z,3260.00
2022-09-12T08:13:52.974Z,3256.00
2022-09-12T08:14:38.886Z,3272.00
2022-09-12T08:15:38.880Z,3292.00
2022-09-12T08:16:38.814Z,3300.00
2022-09-12T08:17:38.762Z,3296.00
2022-09-12T08:18:38.854Z,3300.00
2022-09-12T08:19:38.698Z,3300.00
2022-09-12T08:20:38.666Z,3320.00
2022-09-12T08:21:38.630Z,3328.00
2022-09-12T08:22:38.612Z,3340.00
2022-09-12T08:23:38.577Z,3348.00
2022-09-12T08:24:38.634Z,3348.00
2022-09-12T08:25:38.511Z,3360.00
2022-09-12T08:26:38.483Z,3368.00
2022-09-12T08:27:38.456Z,3380.00
2022-09-12T08:28:38.425Z,3372.00
2022-09-12T08:29:38.449Z,3384.00
2022-09-12T08:30:38.397Z,3408.00
2022-09-12T08:31:38.331Z,3456.00
2022-09-12T08:32:38.306Z,3504.00
2022-09-12T08:33:38.268Z,3512.00
2022-09-12T08:34:38.247Z,3388.00
2022-09-12T08:35:38.267Z,3348.00
2022-09-12T08:36:38.187Z,3344.00
2022-09-12T08:37:38.152Z,3348.00
2022-09-12T08:38:38.168Z,3344.00
2022-09-12T08:39:38.188Z,3356.00
2022-09-12T08:40:38.128Z,3372.00
2022-09-12T08:41:38.037Z,3380.00
2022-09-12T08:42:37.994Z,3436.00
2022-09-12T08:43:37.976Z,3404.00
2022-09-12T08:44:37.941Z,3384.00
2022-09-12T08:45:37.976Z,3396.00
2022-09-12T08:46:37.937Z,3412.00
2022-09-12T08:47:37.851Z,3428.00
2022-09-12T08:48:37.820Z,3468.00
2022-09-12T08:49:37.789Z,3484.00
2022-09-12T08:50:37.757Z,3464.00
2022-09-12T08:51:37.851Z,3436.00
2022-09-12T08:52:37.716Z,3416.00
2022-09-12T08:53:37.667Z,3388.00
2022-09-12T08:54:37.644Z,3372.00
2022-09-12T08:55:37.608Z,3380.00
2022-09-12T08:56:37.603Z,3408.00
2022-09-12T08:57:37.725Z,3416.00
2022-09-12T08:58:37.519Z,3404.00
2022-09-12T08:59:37.485Z,3408.00
2022-09-12T09:00:37.462Z,3416.00
2022-09-12T09:01:37.500Z,3424.00
2022-09-12T09:02:37.445Z,3444.00
2022-09-12T09:03:37.462Z,3476.00
2022-09-12T09:04:37.338Z,3520.00
2022-09-12T09:05:37.310Z,3540.00
2022-09-12T09:06:37.276Z,3628.00
2022-09-12T09:07:37.300Z,3720.00
2022-09-12T09:08:37.219Z,3768.00
2022-09-12T09:09:37.268Z,3720.00
2022-09-12T09:10:37.160Z,3696.00
2022-09-12T09:11:37.141Z,3680.00
2022-09-12T09:12:37.108Z,3724.00
2022-09-12T09:13:37.073Z,3760.00
2022-09-12T09:14:37.041Z,3716.00
2022-09-12T09:15:37.140Z,3692.00
2022-09-12T09:16:36.993Z,3676.00
2022-09-12T09:17:36.950Z,3692.00
2022-09-12T09:18:36.921Z,3736.00
2022-09-12T09:19:36.894Z,3776.00
2022-09-12T09:20:37.063Z,3800.00
2022-09-12T09:21:36.837Z,3876.00
2022-09-12T09:22:36.798Z,3968.00
2022-09-12T09:23:36.779Z,4076.00
2022-09-12T09:24:36.748Z,4112.00
2022-09-12T09:25:36.713Z,4112.00
2022-09-12T09:26:38.825Z,4228.00
2022-09-12T09:27:40.957Z,4372.00
2022-09-12T09:28:36.632Z,4448.00
2022-09-12T09:29:36.595Z,4548.00
2022-09-12T09:30:36.642Z,4684.00
2022-09-12T09:31:36.758Z,4792.00
2022-09-12T09:32:36.509Z,4720.00
2022-09-12T09:33:36.487Z,4336.00
2022-09-12T09:34:36.444Z,4156.00
2022-09-12T09:35:36.840Z,4072.00
2022-09-12T09:36:36.387Z,4000.00
2022-09-12T09:37:36.452Z,3964.00
2022-09-12T09:38:36.350Z,3984.00
2022-09-12T09:39:36.363Z,4092.00
2022-09-12T09:40:36.274Z,4080.00
2022-09-12T09:41:36.297Z,4012.00
2022-09-12T09:42:36.258Z,4008.00
2022-09-12T09:43:36.259Z,4036.00
2022-09-12T09:44:36.177Z,4112.00
2022-09-12T09:45:36.123Z,4208.00
2022-09-12T09:46:36.141Z,4264.00
2022-09-12T09:47:36.085Z,4260.00
2022-09-12T09:48:36.155Z,4356.00
2022-09-12T09:49:36.043Z,4380.00
2022-09-12T09:50:36.012Z,4284.00
2022-09-12T09:51:36.964Z,4184.00
2022-09-12T09:52:35.926Z,4176.00
2022-09-12T09:53:35.909Z,4188.00
2022-09-12T09:54:35.934Z,4280.00
2022-09-12T09:55:35.880Z,4484.00
2022-09-12T09:56:35.871Z,4744.00
2022-09-12T09:57:35.784Z,5092.00
2022-09-12T09:58:35.789Z,5412.00
2022-09-12T09:59:35.781Z,5684.00
2022-09-12T10:00:35.732Z,5940.00
2022-09-12T10:01:35.677Z,6040.00
2022-09-12T10:02:35.678Z,6160.00
2022-09-12T10:03:35.809Z,6236.00
2022-09-12T10:04:40.615Z,6632.00
2022-09-12T10:05:35.547Z,6960.00
2022-09-12T10:06:35.543Z,6860.00
2022-09-12T10:07:35.499Z,6464.00
2022-09-12T10:08:35.540Z,5968.00
2022-09-12T10:09:35.489Z,5888.00
2022-09-12T10:10:35.457Z,5812.00
2022-09-12T10:11:35.397Z,5488.00
2022-09-12T10:12:35.366Z,5132.00
2022-09-12T10:13:35.408Z,5180.00
2022-09-12T10:14:35.302Z,5268.00
2022-09-12T10:15:36.174Z,5676.00
2022-09-12T10:16:35.243Z,5896.00
2022-09-12T10:17:35.204Z,5960.00
2022-09-12T10:18:35.177Z,6080.00
2022-09-12T10:19:35.159Z,6320.00
2022-09-12T10:20:35.236Z,6652.00
2022-09-12T10:21:35.109Z,7172.00
2022-09-12T10:22:35.073Z,7576.00
2022-09-12T10:23:35.160Z,7852.00
2022-09-12T10:24:35.019Z,7824.00
2022-09-12T10:25:35.233Z,7580.00
2022-09-12T10:26:34.960Z,7300.00
2022-09-12T10:27:34.954Z,7072.00
2022-09-12T10:28:34.989Z,6972.00
2022-09-12T10:29:34.894Z,6664.00
2022-09-12T10:30:35.456Z,6556.00
2022-09-12T10:31:35.072Z,6292.00
2022-09-12T10:32:34.791Z,6340.00
2022-09-12T10:33:34.767Z,6384.00
2022-09-12T10:34:34.761Z,6536.00
2022-09-12T10:35:34.711Z,6792.00
2022-09-12T10:36:34.711Z,6848.00
2022-09-12T10:37:34.727Z,6720.00
2022-09-12T10:38:34.625Z,6604.00
2022-09-12T10:39:34.608Z,6364.00
2022-09-12T10:40:34.609Z,6468.00
2022-09-12T10:41:34.573Z,7072.00
2022-09-12T10:42:34.577Z,7640.00
2022-09-12T10:43:34.495Z,8156.00
2022-09-12T10:44:34.478Z,8556.00
2022-09-12T10:45:34.440Z,9024.00
2022-09-12T10:46:34.404Z,9412.00
2022-09-12T10:47:34.451Z,9976.00
2022-09-12T10:48:34.355Z,10492.00
2022-09-12T10:49:34.323Z,10820.00
2022-09-12T10:50:34.300Z,11648.00
2022-09-12T10:51:34.275Z,12596.00
2022-09-12T10:52:34.317Z,12396.00
2022-09-12T10:53:34.835Z,11720.00
2022-09-12T10:54:34.191Z,11076.00
2022-09-12T10:55:34.203Z,10288.00
2022-09-12T10:56:34.172Z,9588.00
2022-09-12T10:57:34.182Z,8948.00
2022-09-12T10:58:34.175Z,8156.00
2022-09-12T10:59:34.079Z,7472.00
2022-09-12T11:00:34.039Z,7292.00
2022-09-12T11:01:34.163Z,7132.00
2022-09-12T11:02:35.001Z,7068.00
2022-09-12T11:03:34.021Z,7188.00
2022-09-12T11:04:33.927Z,7220.00
2022-09-12T11:05:33.915Z,7240.00
2022-09-12T11:06:33.936Z,7024.00
2022-09-12T11:07:33.851Z,6904.00
2022-09-12T11:08:33.836Z,6828.00
2022-09-12T11:09:33.849Z,6368.00
2022-09-12T11:10:36.887Z,6120.00
2022-09-12T11:11:33.781Z,5988.00
2022-09-12T11:12:33.726Z,5952.00
2022-09-12T11:13:33.688Z,6148.00
2022-09-12T11:14:33.786Z,6344.00
2022-09-12T11:15:33.722Z,6340.00
2022-09-12T11:16:33.623Z,6448.00
2022-09-12T11:17:33.579Z,6456.00
2022-09-12T11:18:33.553Z,6524.00
2022-09-12T11:19:33.542Z,6692.00
2022-09-12T11:20:33.571Z,6744.00
2022-09-12T11:21:33.482Z,6704.00
2022-09-12T11:22:33.454Z,6556.00
2022-09-12T11:23:33.427Z,6808.00
2022-09-12T11:24:33.400Z,7032.00
2022-09-12T11:25:33.487Z,7064.00
2022-09-12T11:26:33.363Z,7400.00
2022-09-12T11:27:33.315Z,7660.00
2022-09-12T11:28:33.343Z,8084.00
2022-09-12T11:29:33.322Z,8364.00
2022-09-12T11:30:33.320Z,8720.00
2022-09-12T11:31:33.296Z,8860.00
2022-09-12T11:32:33.205Z,9120.00
2022-09-12T11:33:33.169Z,8732.00
2022-09-12T11:34:33.150Z,8116.00
2022-09-12T11:35:33.112Z,7500.00
2022-09-12T11:36:33.136Z,7320.00
2022-09-12T11:37:33.126Z,7104.00
2022-09-12T11:38:33.077Z,6952.00
2022-09-12T11:39:33.004Z,6908.00
2022-09-12T11:40:32.993Z,6832.00
2022-09-12T11:41:32.959Z,6760.00
2022-09-12T11:42:32.980Z,6708.00
2022-09-12T11:43:32.891Z,6808.00
2022-09-12T11:44:32.873Z,6912.00
2022-09-12T11:45:32.855Z,7032.00
2022-09-12T11:46:32.831Z,7220.00
2022-09-12T11:47:32.826Z,7516.00
2022-09-12T11:48:32.792Z,7696.00
2022-09-12T11:49:35.582Z,7852.00
2022-09-12T11:50:32.713Z,7992.00
2022-09-12T11:51:32.670Z,8148.00
2022-09-12T11:52:32.751Z,8336.00
2022-09-12T11:53:32.620Z,8364.00
2022-09-12T11:54:32.644Z,8192.00
2022-09-12T11:55:32.568Z,8344.00
2022-09-12T11:56:32.542Z,8476.00
2022-09-12T11:57:32.540Z,8840.00
2022-09-12T11:58:32.614Z,8804.00
2022-09-12T11:59:32.461Z,8932.00
2022-09-12T12:00:32.455Z,8900.00
2022-09-12T12:01:32.411Z,9008.00
2022-09-12T12:02:32.443Z,8844.00
2022-09-12T12:03:32.495Z,8884.00
2022-09-12T12:04:32.331Z,8756.00
2022-09-12T12:05:32.314Z,9200.00
2022-09-12T12:06:32.282Z,10000.00
2022-09-12T12:07:32.280Z,10544.00
2022-09-12T12:08:32.288Z,10704.00
2022-09-12T12:09:32.244Z,10888.00
2022-09-12T12:10:32.171Z,11192.00
2022-09-12T12:11:32.203Z,11304.00
2022-09-12T12:12:32.144Z,11268.00
2022-09-12T12:13:32.153Z,10980.00
2022-09-12T12:14:32.075Z,10488.00
2022-09-12T12:15:32.122Z,10224.00
2022-09-12T12:16:32.059Z,10032.00
2022-09-12T12:17:32.041Z,10156.00
2022-09-12T12:18:32.077Z,10160.00
2022-09-12T12:19:31.955Z,9968.00
2022-09-12T12:20:31.925Z,9456.00
2022-09-12T12:21:31.899Z,9004.00
2022-09-12T12:22:31.873Z,8956.00
2022-09-12T12:23:31.852Z,8876.00
2022-09-12T12:24:31.883Z,8756.00
2022-09-12T12:25:31.793Z,8772.00
2022-09-12T12:26:31.765Z,9016.00
2022-09-12T12:27:31.744Z,9316.00
2022-09-12T12:28:34.934Z,9464.00
2022-09-12T12:29:32.065Z,9540.00
2022-09-12T12:30:31.709Z,9684.00